Latest Weather Observations for West Roebuck

IDW60801

Issued at 5:33 pm WST Tuesday 28 February 2017 (issued every 30 minutes, with the page automatically refreshed every 10 minutes)

About weather observations | Map of weather stations | Latest weather observations for WA | Other Formats
Station Details ID: 003096 Name: WEST ROEBUCK Lat: -17.90 Lon: 122.31 Height: 32.0 m
Data from the previous 72 hours. | See also: Recent months at West Roebuck
Date/Time
WST
Temp
°C
App
Temp
°C
Dew
Point
°C
Rel
Hum
%
Delta-T
°C
Wind Press
QNH
hPa
Press
MSL
hPa
Rain since
9am
mm
Dir  Spd
km/h
Gust
km/h
Spd
kts
Gust
kts
28/05:30pm 32.5 - - - - W 2 7 1 4 - - 0.0
28/05:00pm 32.9 - - - - WSW 7 11 4 6 - - 0.0
28/04:30pm 33.5 - - - - WSW 2 6 1 3 - - 0.0
28/04:00pm 33.1 - - - - SE 2 6 1 3 - - 0.0
28/03:30pm 33.2 - - - - SE 9 13 5 7 - - 0.0
28/03:00pm 33.2 - - - - ESE 9 13 5 7 - - 0.0
28/02:30pm 34.3 - - - - ESE 7 13 4 7 - - 0.0
28/02:00pm 32.8 - - - - SSE 9 15 5 8 - - 0.0
28/01:30pm 32.4 - - - - SE 9 15 5 8 - - 0.0
28/01:00pm 32.8 - - - - E 9 15 5 8 - - 0.0
28/12:30pm 31.4 - - - - ESE 11 15 6 8 - - 0.0
28/12:00pm 31.4 - - - - SE 13 17 7 9 - - 0.0
28/11:30am 31.7 - - - - ESE 13 19 7 10 - - 0.0
28/11:00am 31.9 - - - - E 9 17 5 9 - - 0.0
28/10:30am 31.2 - - - - SE 7 13 4 7 - - 0.0
28/10:00am 29.8 - - - - E 9 13 5 7 - - 0.0
28/09:30am 29.2 - - - - E 13 17 7 9 - - 0.0
28/09:00am 29.2 - - - - ENE 11 17 6 9 - - 13.8
28/08:30am 27.4 - - - - ENE 2 7 1 4 - - 13.8
28/08:00am 26.4 - - - - E 13 19 7 10 - - 13.8
28/07:30am 25.5 - - - - E 11 17 6 9 - - 13.8
28/07:00am 24.9 - - - - SW 2 9 1 5 - - 13.8
28/06:30am 24.4 - - - - ENE 6 7 3 4 - - 13.8
28/06:00am 24.2 - - - - E 7 11 4 6 - - 13.8
28/05:30am 24.1 - - - - E 6 9 3 5 - - 13.8
28/05:00am 24.2 - - - - CALM 0 0 0 0 - - 13.8
28/04:30am 24.1 - - - - CALM 0 0 0 0 - - 13.8
28/04:00am 24.0 - - - - CALM 0 0 0 0 - - 13.8
28/03:30am 24.0 - - - - NNE 4 7 2 4 - - 13.8
28/03:00am 24.3 - - - - NNE 7 9 4 5 - - 13.8
28/02:30am 24.3 - - - - S 6 11 3 6 - - 13.8
28/02:00am 24.3 - - - - S 7 11 4 6 - - 13.8
28/01:30am 24.4 - - - - SE 7 13 4 7 - - 13.8
28/01:00am 24.2 - - - - SW 7 9 4 5 - - 13.8
28/12:30am 24.0 - - - - SSE 6 7 3 4 - - 13.8
28/12:00am 23.9 - - - - ENE 9 13 5 7 - - 13.8
 
Date/Time
WST
Temp
°C
App
Temp
°C
Dew
Point
°C
Rel
Hum
%
Delta-T
°C
Wind Press
QNH
hPa
Press
MSL
hPa
Rain since
9am
mm
Dir  Spd
km/h
Gust
km/h
Spd
kts
Gust
kts
27/11:30pm 23.8 - - - - NW 4 9 2 5 - - 13.8
27/11:00pm 23.6 - - - - ESE 7 9 4 5 - - 13.8
27/10:30pm 23.2 - - - - SE 9 13 5 7 - - 13.4
27/10:00pm 23.0 - - - - S 9 13 5 7 - - 13.4
27/09:30pm 23.5 - - - - E 11 17 6 9 - - 12.4
27/09:00pm 23.6 - - - - ENE 19 32 10 17 - - 6.4
27/08:35pm 26.4 - - - - NE 28 50 15 27 - - 0.0
27/08:30pm 26.9 - - - - NE 19 41 10 22 - - 0.0
27/08:00pm 27.3 - - - - W 6 7 3 4 - - 0.0
27/07:30pm 27.5 - - - - SW 6 7 3 4 - - 0.0
27/07:00pm 27.9 - - - - SW 6 7 3 4 - - 0.0
27/06:30pm 28.5 - - - - W 9 13 5 7 - - 0.0
27/06:00pm 29.3 - - - - W 15 20 8 11 - - 0.0
27/05:30pm 30.5 - - - - WNW 17 24 9 13 - - 0.0
27/05:00pm 31.1 - - - - WNW 17 24 9 13 - - 0.0
27/04:30pm 31.8 - - - - WNW 15 20 8 11 - - 0.0
27/04:00pm 32.2 - - - - W 15 20 8 11 - - 0.0
27/03:30pm 32.2 - - - - W 15 20 8 11 - - 0.0
27/03:00pm 32.4 - - - - WNW 17 26 9 14 - - 0.0
27/02:30pm 32.5 - - - - W 15 20 8 11 - - 0.0
27/02:00pm 31.9 - - - - W 11 17 6 9 - - 0.0
27/01:30pm 31.5 - - - - SW 13 19 7 10 - - 0.0
27/01:00pm 31.8 - - - - SW 13 19 7 10 - - 0.0
27/12:30pm 31.3 - - - - SSW 13 19 7 10 - - 0.0
27/12:00pm 30.3 - - - - S 15 20 8 11 - - 0.0
27/11:30am 31.9 - - - - SSW 9 20 5 11 - - 0.0
27/11:00am 32.5 - - - - SW 7 15 4 8 - - 0.0
27/10:30am 32.2 - - - - N 7 11 4 6 - - 0.0
27/10:00am 31.4 - - - - NNW 6 13 3 7 - - 0.0
27/09:30am 30.9 - - - - WNW 4 13 2 7 - - 0.0
27/09:00am 29.5 - - - - CALM 0 6 0 3 - - 30.0
27/08:30am 29.2 - - - - SSW 2 6 1 3 - - 30.0
27/08:00am 27.8 - - - - E 2 6 1 3 - - 30.0
27/07:30am 27.0 - - - - ESE 9 11 5 6 - - 30.0
27/07:00am 25.4 - - - - SE 9 13 5 7 - - 30.0
27/06:30am 24.6 - - - - ESE 6 7 3 4 - - 30.0
27/06:00am 24.2 - - - - CALM 0 0 0 0 - - 30.0
27/05:30am 24.4 - - - - NNE 6 7 3 4 - - 30.0
27/05:00am 24.4 - - - - NNE 7 9 4 5 - - 30.0
27/04:30am 24.4 - - - - NNE 7 13 4 7 - - 30.0
27/04:00am 24.1 - - - - NNE 7 11 4 6 - - 30.0
27/03:30am 24.0 - - - - NNW 7 9 4 5 - - 30.0
27/03:00am 24.2 - - - - CALM 0 0 0 0 - - 30.0
27/02:30am 24.4 - - - - NE 6 9 3 5 - - 30.0
27/02:00am 24.8 - - - - NE 4 9 2 5 - - 30.0
27/01:30am 25.2 - - - - E 9 17 5 9 - - 30.0
27/01:00am 25.8 - - - - ESE 17 28 9 15 - - 30.0
27/12:30am 25.7 - - - - ESE 9 19 5 10 - - 30.0
27/12:00am 25.5 - - - - E 7 9 4 5 - - 30.0
 
Date/Time
WST
Temp
°C
App
Temp
°C
Dew
Point
°C
Rel
Hum
%
Delta-T
°C
Wind Press
QNH
hPa
Press
MSL
hPa
Rain since
9am
mm
Dir  Spd
km/h
Gust
km/h
Spd
kts
Gust
kts
26/11:30pm 25.3 - - - - ESE 7 9 4 5 - - 30.0
26/11:00pm 25.4 - - - - CALM 0 0 0 0 - - 30.0
26/10:30pm 25.6 - - - - N 6 9 3 5 - - 30.0
26/10:00pm 25.9 - - - - NNE 6 9 3 5 - - 30.0
26/09:30pm 26.2 - - - - NE 6 6 3 3 - - 30.0
26/09:00pm 26.2 - - - - NNE 7 11 4 6 - - 30.0
26/08:30pm 26.2 - - - - NNE 7 9 4 5 - - 30.0
26/08:00pm 26.4 - - - - NNE 4 9 2 5 - - 30.0
26/07:30pm 26.7 - - - - CALM 0 0 0 0 - - 30.0
26/07:00pm 27.0 - - - - CALM 0 0 0 0 - - 30.0
26/06:30pm 27.2 - - - - E 6 7 3 4 - - 30.0
26/06:00pm 27.6 - - - - CALM 0 0 0 0 - - 30.0
26/05:30pm 27.9 - - - - ESE 7 9 4 5 - - 30.0
26/05:00pm 27.8 - - - - CALM 0 0 0 0 - - 30.0
26/04:30pm 26.5 - - - - NNE 6 9 3 5 - - 30.0
26/04:00pm 24.8 - - - - - 6 13 3 7 - - 29.8
26/03:30pm 26.6 - - - - E 7 9 4 5 - - 24.2
26/03:00pm 24.9 - - - - NNE 7 13 4 7 - - 20.6
26/02:30pm 25.3 - - - - NW 19 30 10 16 - - 3.6
26/02:00pm 30.2 - - - - NNE 6 11 3 6 - - 0.2
26/01:30pm 30.7 - - - - NE 11 19 6 10 - - 0.2
26/01:00pm 30.8 - - - - ENE 13 20 7 11 - - 0.2
26/12:30pm 30.5 - - - - NE 13 20 7 11 - - 0.2
26/12:00pm 30.1 - - - - ENE 17 26 9 14 - - 0.2
26/11:30am 29.5 - - - - NE 17 28 9 15 - - 0.0
26/11:00am 29.2 - - - - NE 19 30 10 16 - - 0.0
26/10:30am 28.5 - - - - ENE 22 33 12 18 - - 0.0
26/10:00am 28.4 - - - - ENE 22 33 12 18 - - 0.0
26/09:30am 28.2 - - - - ENE 19 28 10 15 - - 0.0
26/09:00am 27.3 - - - - ENE 17 26 9 14 - - 23.6
26/08:30am 26.1 - - - - ENE 17 28 9 15 - - 23.6
26/08:00am 25.4 - - - - E 17 24 9 13 - - 23.6
26/07:30am 24.7 - - - - E 9 17 5 9 - - 23.6
26/07:00am 24.2 - - - - E 7 11 4 6 - - 23.6
26/06:30am 23.8 - - - - E 7 9 4 5 - - 23.6
26/06:00am 23.6 - - - - CALM 0 0 0 0 - - 23.6
26/05:30am 23.4 - - - - CALM 0 0 0 0 - - 23.6
26/05:00am 23.2 - - - - SE 9 13 5 7 - - 23.6
26/04:30am 23.2 - - - - ESE 9 17 5 9 - - 23.6
26/04:00am 23.2 - - - - ESE 15 20 8 11 - - 23.6
26/03:30am 23.3 - - - - SE 9 17 5 9 - - 23.6
26/03:00am 23.6 - - - - ESE 6 9 3 5 - - 23.6
26/02:30am 23.8 - - - - NE 11 19 6 10 - - 22.4
26/02:00am 23.8 - - - - E 20 33 11 18 - - 15.6
26/01:30am 24.1 - - - - E 19 32 10 17 - - 7.0
26/01:00am 26.0 - - - - E 13 19 7 10 - - 1.6
26/12:30am 26.6 - - - - ESE 13 22 7 12 - - 1.6
26/12:00am 26.3 - - - - SE 15 20 8 11 - - 1.6
 
Date/Time
WST
Temp
°C
App
Temp
°C
Dew
Point
°C
Rel
Hum
%
Delta-T
°C
Wind Press
QNH
hPa
Press
MSL
hPa
Rain since
9am
mm
Dir  Spd
km/h
Gust
km/h
Spd
kts
Gust
kts
25/11:30pm 26.2 - - - - ENE 9 13 5 7 - - 1.6
25/11:00pm 26.1 - - - - ENE 9 9 5 5 - - 1.6
25/10:30pm 26.0 - - - - NNE 6 9 3 5 - - 1.6
25/10:00pm 26.1 - - - - N 7 7 4 4 - - 1.6
25/09:30pm 26.2 - - - - CALM 0 0 0 0 - - 1.2
25/09:00pm 26.0 - - - - N 4 7 2 4 - - 1.2
25/08:30pm 26.0 - - - - NNW 9 15 5 8 - - 1.0
25/08:00pm 25.9 - - - - N 6 9 3 5 - - 1.0
25/07:30pm 25.5 - - - - N 11 15 6 8 - - 1.0
25/07:00pm 25.8 - - - - N 11 15 6 8 - - 0.8
25/06:30pm 26.0 - - - - N 13 20 7 11 - - 0.6
25/06:00pm 30.5 - - - - E 13 33 7 18 - - 0.0

Other Formats:

Comma delimited format used in spreadsheet applications
http://www.bom.gov.au/fwo/IDW60801/IDW60801.95204.axf

JavaScript Object Notation format (JSON) in row-major order
http://www.bom.gov.au/fwo/IDW60801/IDW60801.95204.json